Time;durP1;ratioP1;P1;durP2;ratioP2;P2;SDS_P1;SDS_P2;PMS_P1;PMS_P2;Temp;Humidity;BMP_temperature;BMP_pressure;BME280_temperature;BME280_humidity;BME280_pressure;Samples;Min_cycle;Max_cycle;Signal;HPM_P1;HPM_P2
2022/06/10 00:01:52;;;;;;;3.83;2.03;;;15.80;90.00;;;;;;5016734;28;20144;-67
2022/06/10 00:04:17;;;;;;;2.50;2.30;;;15.70;90.00;;;;;;5017867;28;20467;-66
2022/06/10 00:06:44;;;;;;;2.83;2.58;;;15.70;90.10;;;;;;5016071;28;20045;-68
2022/06/10 00:09:10;;;;;;;2.45;2.25;;;15.60;90.10;;;;;;5013249;28;20033;-67
2022/06/10 00:11:36;;;;;;;2.03;1.90;;;15.60;90.00;;;;;;5013903;28;20040;-67
2022/06/10 00:14:02;;;;;;;2.45;1.83;;;15.60;90.00;;;;;;5013626;28;20034;-68
2022/06/10 00:16:27;;;;;;;2.90;2.03;;;15.50;89.80;;;;;;5014400;28;20064;-66
2022/06/10 00:18:53;;;;;;;4.93;1.90;;;15.50;89.90;;;;;;5013968;28;20036;-67
2022/06/10 00:21:20;;;;;;;2.95;2.10;;;15.50;89.90;;;;;;5020526;28;20042;-66
2022/06/10 00:23:46;;;;;;;2.35;2.03;;;15.50;89.90;;;;;;5016688;28;20029;-67
2022/06/10 00:26:13;;;;;;;3.65;2.20;;;15.40;89.80;;;;;;5015863;28;20437;-67
2022/06/10 00:28:40;;;;;;;2.35;1.88;;;15.40;89.90;;;;;;5015935;28;20119;-66
2022/06/10 00:31:06;;;;;;;1.88;1.73;;;15.40;89.50;;;;;;5015656;28;20363;-68
2022/06/10 00:33:34;;;;;;;3.50;1.83;;;15.30;89.50;;;;;;5013466;28;20065;-67
2022/06/10 00:36:01;;;;;;;2.78;1.75;;;15.20;90.00;;;;;;5014957;28;20041;-67
2022/06/10 00:38:27;;;;;;;2.63;1.60;;;15.20;89.80;;;;;;5017714;28;20072;-68
2022/06/10 00:40:55;;;;;;;1.92;1.52;;;15.20;89.60;;;;;;5015977;28;20121;-67
2022/06/10 00:43:24;;;;;;;2.33;1.48;;;15.20;90.00;;;;;;5017196;28;20030;-67
2022/06/10 00:46:06;;;;;;;1.75;1.20;;;15.20;89.00;;;;;;5015063;28;20042;-67
2022/06/10 00:48:39;;;;;;;1.65;1.15;;;15.10;88.90;;;;;;5013507;28;20060;-67
2022/06/10 00:51:36;;;;;;;2.45;1.20;;;15.20;88.60;;;;;;5015477;28;20044;-67
2022/06/10 00:54:35;;;;;;;2.88;1.10;;;15.10;88.40;;;;;;5019826;28;20040;-63
2022/06/10 00:57:13;;;;;;;3.38;1.27;;;15.10;88.90;;;;;;5020432;28;20440;-63
2022/06/10 00:59:42;;;;;;;1.42;1.13;;;15.00;88.80;;;;;;5016216;28;20033;-63
2022/06/10 01:02:12;;;;;;;3.63;1.50;;;15.00;88.50;;;;;;5016303;28;20029;-62
2022/06/10 01:04:40;;;;;;;2.67;1.25;;;15.00;88.80;;;;;;5016149;28;20052;-62
2022/06/10 01:07:08;;;;;;;1.38;1.10;;;15.00;89.00;;;;;;5016870;28;20080;-63
2022/06/10 01:09:35;;;;;;;1.65;1.27;;;14.90;89.10;;;;;;5011470;28;20030;-62
2022/06/10 01:12:22;;;;;;;2.65;0.95;;;14.90;89.20;;;;;;5018441;28;20044;-63
2022/06/10 01:15:15;;;;;;;1.23;1.13;;;14.80;89.40;;;;;;5015413;28;20034;-62
2022/06/10 01:17:56;;;;;;;1.55;1.30;;;14.80;89.30;;;;;;5011765;28;20040;-63
2022/06/10 01:20:31;;;;;;;2.35;1.08;;;14.80;89.50;;;;;;5018164;28;20029;-62
2022/06/10 01:23:29;;;;;;;2.03;1.00;;;14.80;89.40;;;;;;5016191;28;20038;-62
2022/06/10 01:26:01;;;;;;;1.50;1.10;;;14.70;89.50;;;;;;5019344;28;20033;-63
2022/06/10 01:28:45;;;;;;;2.85;1.20;;;14.70;89.80;;;;;;5008582;28;20040;-62
2022/06/10 01:31:21;;;;;;;2.35;1.10;;;14.70;90.00;;;;;;5015926;28;20045;-62
2022/06/10 01:33:47;;;;;;;;;;;14.70;90.00;;;;;;5014050;28;20071;-63
2022/06/10 01:36:52;;;;;;;1.45;1.20;;;14.60;90.00;;;;;;5014278;28;19979;-62
2022/06/10 01:39:36;;;;;;;2.35;0.98;;;14.60;90.10;;;;;;5016208;28;20049;-63
2022/06/10 01:42:19;;;;;;;1.30;1.00;;;14.60;90.10;;;;;;5015254;28;20033;-62
2022/06/10 01:45:10;;;;;;;2.22;1.00;;;14.50;90.20;;;;;;5011813;28;20032;-63
2022/06/10 01:47:58;;;;;;;1.42;0.98;;;14.50;90.30;;;;;;5010792;28;20104;-62
2022/06/10 01:50:54;;;;;;;2.10;1.13;;;14.40;90.40;;;;;;5006420;28;20026;-62
2022/06/10 01:53:29;;;;;;;4.00;1.30;;;14.40;90.40;;;;;;5012152;28;20037;-63
2022/06/10 01:56:00;;;;;;;1.08;0.98;;;14.40;90.50;;;;;;5018020;28;20276;-63
2022/06/10 01:58:36;;;;;;;3.08;0.80;;;14.40;90.50;;;;;;5013169;28;20029;-63
2022/06/10 02:01:06;;;;;;;1.23;0.90;;;14.40;90.60;;;;;;5012152;28;20043;-62
2022/06/10 02:03:48;;;;;;;2.70;1.13;;;14.40;90.60;;;;;;5009889;28;20034;-62
2022/06/10 02:06:30;;;;;;;2.53;1.00;;;14.30;90.70;;;;;;5012124;28;20526;-62
2022/06/10 02:09:01;;;;;;;2.55;1.20;;;14.30;90.70;;;;;;5011981;28;20030;-63
2022/06/10 02:11:30;;;;;;;1.20;1.10;;;14.30;90.80;;;;;;5019631;28;20066;-63
2022/06/10 02:14:07;;;;;;;2.33;1.20;;;14.20;90.80;;;;;;5014367;28;20117;-63
2022/06/10 02:16:39;;;;;;;1.45;0.98;;;14.20;91.00;;;;;;5008583;28;20022;-62
2022/06/10 02:19:07;;;;;;;2.88;0.90;;;14.20;91.10;;;;;;5012961;28;20471;-62
2022/06/10 02:21:36;;;;;;;2.20;1.63;;;14.20;91.20;;;;;;5010883;28;20045;-63
2022/06/10 02:24:15;;;;;;;1.02;0.93;;;14.20;91.20;;;;;;5013470;28;20034;-62
2022/06/10 02:26:43;;;;;;;1.05;0.95;;;14.10;91.30;;;;;;5013363;28;20044;-62
2022/06/10 02:29:15;;;;;;;1.38;1.10;;;14.10;91.30;;;;;;5012926;28;20029;-62
2022/06/10 02:31:44;;;;;;;1.73;1.30;;;14.10;91.30;;;;;;5011535;28;20037;-62
2022/06/10 02:34:12;;;;;;;1.60;0.90;;;14.10;91.30;;;;;;5014295;28;20037;-63
2022/06/10 02:36:40;;;;;;;0.90;0.80;;;14.10;91.40;;;;;;5013443;28;20029;-62
2022/06/10 02:39:44;;;;;;;3.75;1.25;;;14.10;91.40;;;;;;5011058;28;20056;-62
2022/06/10 02:42:29;;;;;;;2.53;1.00;;;14.10;91.50;;;;;;4996874;28;20038;-62
2022/06/10 02:45:06;;;;;;;4.28;1.02;;;14.00;91.60;;;;;;5014624;28;20084;-63
2022/06/10 02:48:07;;;;;;;1.65;1.20;;;14.00;91.60;;;;;;5011411;28;20026;-62
2022/06/10 02:50:33;;;;;;;4.68;1.02;;;13.90;91.80;;;;;;5015058;28;20029;-63
2022/06/10 02:52:59;;;;;;;1.70;1.27;;;13.90;91.80;;;;;;5016241;28;20034;-62
2022/06/10 02:55:27;;;;;;;1.15;0.90;;;13.90;92.00;;;;;;5016891;28;20504;-63
2022/06/10 03:01:13;;;;;;;2.53;1.20;;;13.90;92.20;;;;;;5022939;28;20029;-62
2022/06/10 03:04:07;;;;;;;2.30;1.17;;;13.90;92.20;;;;;;5015868;28;20043;-62
2022/06/10 03:07:00;;;;;;;2.05;1.15;;;13.80;92.10;;;;;;5015497;28;20034;-62
2022/06/10 03:09:44;;;;;;;3.65;1.25;;;13.80;92.30;;;;;;5016602;28;20486;-63
2022/06/10 03:12:22;;;;;;;1.98;1.27;;;13.80;92.30;;;;;;5021061;28;20044;-62
2022/06/10 03:15:10;;;;;;;4.72;1.20;;;13.80;92.40;;;;;;5011281;28;20441;-62
2022/06/10 03:18:07;;;;;;;2.72;1.30;;;13.80;92.30;;;;;;5019260;28;20374;-62
2022/06/10 03:20:41;;;;;;;4.00;1.13;;;13.90;92.40;;;;;;5015460;28;20112;-63
2022/06/10 03:23:26;;;;;;;2.80;1.30;;;13.90;92.40;;;;;;5010440;28;20042;-62
2022/06/10 03:25:59;;;;;;;3.92;1.02;;;13.90;92.90;;;;;;5012693;28;20038;-62
2022/06/10 03:28:42;;;;;;;1.98;1.60;;;13.90;92.60;;;;;;5013347;28;20057;-63
2022/06/10 03:31:17;;;;;;;3.28;1.25;;;13.90;92.60;;;;;;5013854;28;20048;-62
2022/06/10 03:34:10;;;;;;;3.10;1.57;;;13.90;92.70;;;;;;5014660;28;20033;-62
2022/06/10 03:36:36;;;;;;;2.70;1.48;;;13.90;92.80;;;;;;5014844;28;20286;-63
2022/06/10 03:39:06;;;;;;;3.45;1.45;;;14.00;92.80;;;;;;5006748;28;20048;-63
2022/06/10 03:41:37;;;;;;;1.70;1.20;;;13.90;92.80;;;;;;5011934;28;20077;-63
2022/06/10 03:44:08;;;;;;;2.10;1.17;;;14.00;92.90;;;;;;5012983;28;20038;-62
2022/06/10 03:46:34;;;;;;;1.85;1.40;;;14.00;92.80;;;;;;5015039;28;20025;-62
2022/06/10 03:49:07;;;;;;;4.50;1.40;;;14.00;92.80;;;;;;5014149;28;20026;-62
2022/06/10 03:51:33;;;;;;;3.85;1.42;;;14.00;92.90;;;;;;5013630;28;20257;-62
2022/06/10 03:53:59;;;;;;;2.67;1.50;;;14.10;92.90;;;;;;5011490;28;20557;-62
2022/06/10 03:56:25;;;;;;;2.42;1.25;;;14.10;92.90;;;;;;5017544;28;20033;-62
2022/06/10 03:58:52;;;;;;;1.80;1.30;;;14.10;92.90;;;;;;5013743;28;20034;-62
2022/06/10 04:01:18;;;;;;;2.22;1.17;;;14.10;92.90;;;;;;5013192;28;20048;-62
2022/06/10 04:03:44;;;;;;;3.25;1.40;;;14.20;92.90;;;;;;5008515;28;20129;-63
2022/06/10 04:06:10;;;;;;;3.65;1.42;;;14.20;92.90;;;;;;5016199;28;20126;-62
2022/06/10 04:08:36;;;;;;;4.57;1.33;;;14.20;92.90;;;;;;5014969;28;20037;-63
2022/06/10 04:11:01;;;;;;;2.47;1.30;;;14.30;92.90;;;;;;5009752;28;20111;-63
2022/06/10 04:13:27;;;;;;;3.53;1.30;;;14.30;92.90;;;;;;5016366;28;20025;-62
2022/06/10 04:15:53;;;;;;;3.42;1.33;;;14.30;92.80;;;;;;5018928;28;20576;-63
2022/06/10 04:18:19;;;;;;;4.18;1.42;;;14.40;92.90;;;;;;5007257;28;20911;-62
2022/06/10 04:20:44;;;;;;;2.97;1.42;;;14.40;92.90;;;;;;5017947;28;20041;-62
2022/06/10 04:23:12;;;;;;;3.05;1.40;;;14.40;92.90;;;;;;5014595;28;20044;-62
2022/06/10 04:25:38;;;;;;;2.25;1.38;;;14.50;92.90;;;;;;5014097;28;20068;-63
2022/06/10 04:28:05;;;;;;;4.70;1.50;;;14.50;92.80;;;;;;5010224;28;20030;-62
2022/06/10 04:30:43;;;;;;;5.57;1.50;;;14.60;92.90;;;;;;5016811;28;20124;-62
2022/06/10 04:33:10;;;;;;;2.47;1.50;;;14.70;92.90;;;;;;5013770;28;20048;-62
2022/06/10 04:35:37;;;;;;;3.35;1.35;;;14.70;92.80;;;;;;5011854;28;20115;-63
2022/06/10 04:38:05;;;;;;;5.72;1.70;;;14.80;92.70;;;;;;5016046;28;20095;-63
2022/06/10 04:40:32;;;;;;;4.03;1.38;;;14.90;92.60;;;;;;5013486;28;20413;-63
2022/06/10 04:42:59;;;;;;;4.35;1.95;;;14.90;92.50;;;;;;5013388;28;20084;-63
2022/06/10 04:45:29;;;;;;;4.32;1.40;;;15.00;92.40;;;;;;5016415;28;20026;-63
2022/06/10 04:47:55;;;;;;;3.33;1.50;;;15.10;92.40;;;;;;5018046;28;20067;-62
2022/06/10 04:50:23;;;;;;;4.45;1.80;;;15.20;92.20;;;;;;5011314;28;20029;-62
2022/06/10 04:52:49;;;;;;;4.93;1.50;;;15.30;92.10;;;;;;5017957;28;20045;-63
2022/06/10 04:55:15;;;;;;;3.00;1.60;;;15.40;92.10;;;;;;5013161;28;20041;-62
2022/06/10 04:57:41;;;;;;;2.17;1.40;;;15.50;92.00;;;;;;5007528;28;20045;-63
2022/06/10 05:00:12;;;;;;;3.28;1.35;;;15.60;91.70;;;;;;5014267;28;20037;-63
2022/06/10 05:02:39;;;;;;;5.28;1.90;;;15.70;91.60;;;;;;5017161;28;20095;-63
2022/06/10 05:05:07;;;;;;;5.40;1.73;;;15.80;91.30;;;;;;5013776;28;20219;-63
2022/06/10 05:07:33;;;;;;;5.30;1.77;;;15.90;91.20;;;;;;5016949;28;20037;-63
2022/06/10 05:09:59;;;;;;;3.63;1.80;;;16.00;90.90;;;;;;5016107;28;20560;-62
2022/06/10 05:12:24;;;;;;;4.40;1.80;;;16.10;90.80;;;;;;5012259;28;20124;-62
2022/06/10 05:14:50;;;;;;;7.47;2.25;;;16.30;90.50;;;;;;5012307;28;20036;-63
2022/06/10 05:17:16;;;;;;;3.05;1.65;;;16.40;90.30;;;;;;5018211;28;20090;-63
2022/06/10 05:19:42;;;;;;;5.78;1.77;;;16.50;90.00;;;;;;5014582;28;20554;-63
2022/06/10 05:22:08;;;;;;;2.38;1.52;;;16.70;89.40;;;;;;5012414;28;20033;-63
2022/06/10 05:24:33;;;;;;;7.00;2.00;;;17.10;88.50;;;;;;5009992;28;20038;-63
2022/06/10 05:26:59;;;;;;;5.28;2.10;;;17.60;86.70;;;;;;5014741;28;20029;-63
2022/06/10 05:29:26;;;;;;;2.63;1.50;;;17.90;84.90;;;;;;5013081;28;20078;-63
2022/06/10 05:31:52;;;;;;;2.78;1.80;;;17.90;83.90;;;;;;5012766;28;20767;-63
2022/06/10 05:37:02;;;;;;;7.47;2.10;;;17.70;83.90;;;;;;5016402;28;20033;-62
2022/06/10 05:39:28;;;;;;;5.40;1.27;;;17.80;84.00;;;;;;5009598;28;20094;-63
2022/06/10 05:42:06;;;;;;;3.90;2.05;;;17.80;83.10;;;;;;5011209;28;20140;-63
2022/06/10 05:44:35;;;;;;;3.08;1.15;;;17.80;83.20;;;;;;5009686;28;20152;-63
2022/06/10 05:47:01;;;;;;;3.22;1.27;;;17.90;82.30;;;;;;5007013;28;20053;-63
2022/06/10 05:49:28;;;;;;;3.58;1.45;;;18.00;82.00;;;;;;5015794;28;20203;-63
2022/06/10 05:51:54;;;;;;;5.90;1.80;;;18.10;81.50;;;;;;5015359;28;20283;-62
2022/06/10 05:54:21;;;;;;;4.82;1.20;;;18.20;81.00;;;;;;5013544;28;20087;-63
2022/06/10 05:56:46;;;;;;;4.57;2.20;;;18.30;80.70;;;;;;5010605;28;20049;-63
2022/06/10 05:59:14;;;;;;;3.25;1.58;;;18.40;80.40;;;;;;5012966;28;20038;-63
2022/06/10 06:01:40;;;;;;;4.90;1.23;;;18.50;79.60;;;;;;5010850;28;20038;-62
2022/06/10 06:04:06;;;;;;;4.93;1.30;;;18.50;79.40;;;;;;5010191;28;20033;-63
2022/06/10 06:06:32;;;;;;;8.13;1.58;;;18.60;79.10;;;;;;5011329;28;20041;-63
2022/06/10 06:08:58;;;;;;;3.33;1.00;;;18.70;78.50;;;;;;5016299;28;20033;-62
2022/06/10 06:11:24;;;;;;;4.35;1.50;;;18.90;78.00;;;;;;5009471;28;20034;-63
2022/06/10 06:13:50;;;;;;;5.75;1.38;;;19.00;77.50;;;;;;5012913;28;20033;-63
2022/06/10 06:16:18;;;;;;;3.38;1.20;;;19.20;76.60;;;;;;5012450;28;20030;-63
2022/06/10 06:18:44;;;;;;;3.78;1.40;;;19.40;76.00;;;;;;5008409;28;20048;-63
2022/06/10 06:21:10;;;;;;;3.75;1.10;;;19.40;75.60;;;;;;5014027;28;20102;-63
2022/06/10 06:23:36;;;;;;;3.05;1.13;;;19.30;75.80;;;;;;5018342;28;20026;-63
2022/06/10 06:26:03;;;;;;;2.88;1.20;;;19.30;75.60;;;;;;5016147;28;20200;-63
2022/06/10 06:28:30;;;;;;;3.30;1.25;;;19.40;75.30;;;;;;5014574;28;20033;-63
2022/06/10 06:30:55;;;;;;;2.63;1.00;;;19.50;74.80;;;;;;5016319;28;20064;-63
2022/06/10 06:33:22;;;;;;;6.35;1.00;;;19.60;74.70;;;;;;5015548;28;20148;-63
2022/06/10 06:35:50;;;;;;;4.13;1.27;;;19.70;74.50;;;;;;5012868;28;20083;-63
2022/06/10 06:38:17;;;;;;;5.35;1.50;;;19.70;73.90;;;;;;5008772;28;20901;-63
2022/06/10 06:40:43;;;;;;;3.63;1.10;;;19.70;73.50;;;;;;5019096;28;20034;-63
2022/06/10 06:43:11;;;;;;;4.88;1.25;;;19.70;73.50;;;;;;5016765;28;20048;-63
2022/06/10 06:45:38;;;;;;;2.60;1.00;;;19.70;73.60;;;;;;5014330;28;20482;-63
2022/06/10 06:48:08;;;;;;;3.67;1.00;;;19.80;73.10;;;;;;5016355;28;20529;-63
2022/06/10 06:50:36;;;;;;;3.40;1.30;;;19.90;72.90;;;;;;5013844;28;20689;-63
2022/06/10 06:53:02;;;;;;;3.50;1.10;;;20.00;72.50;;;;;;5015958;28;20144;-63
2022/06/10 06:55:28;;;;;;;3.08;1.23;;;20.10;72.20;;;;;;5021007;28;20022;-63
2022/06/10 06:57:54;;;;;;;3.72;1.30;;;20.20;71.50;;;;;;5012339;28;20079;-63
2022/06/10 07:00:21;;;;;;;8.63;1.20;;;20.40;70.60;;;;;;5013216;28;20052;-63
2022/06/10 07:02:47;;;;;;;4.57;1.38;;;20.50;70.60;;;;;;5014199;28;20033;-63
2022/06/10 07:05:13;;;;;;;4.93;1.20;;;20.50;70.20;;;;;;5016223;28;20033;-63
2022/06/10 07:07:42;;;;;;;3.75;1.20;;;20.50;70.20;;;;;;5018256;28;20067;-63
2022/06/10 07:10:10;;;;;;;5.18;1.00;;;20.40;69.50;;;;;;5015295;28;20026;-63
2022/06/10 07:12:36;;;;;;;3.75;1.38;;;20.50;68.50;;;;;;5020310;28;20029;-63
2022/06/10 07:15:04;;;;;;;4.75;0.90;;;20.50;68.00;;;;;;5015347;28;20056;-63
2022/06/10 07:17:32;;;;;;;5.55;1.95;;;20.60;67.70;;;;;;5015345;28;20030;-63
2022/06/10 07:19:59;;;;;;;3.90;1.30;;;20.50;67.10;;;;;;5015520;28;20041;-63
2022/06/10 07:22:26;;;;;;;8.65;2.72;;;20.50;65.00;;;;;;5015815;28;20044;-63
2022/06/10 07:24:53;;;;;;;7.95;2.42;;;20.60;66.30;;;;;;5016125;28;20065;-63
2022/06/10 07:27:19;;;;;;;4.13;1.52;;;20.60;66.20;;;;;;5015804;28;20029;-63
2022/06/10 07:29:45;;;;;;;6.63;1.65;;;20.70;65.90;;;;;;5015814;28;20029;-62
2022/06/10 07:32:11;;;;;;;9.70;2.00;;;20.80;66.00;;;;;;5016479;28;20025;-63
2022/06/10 07:34:37;;;;;;;5.47;1.33;;;20.80;64.40;;;;;;5012761;28;20037;-63
2022/06/10 07:37:03;;;;;;;7.07;2.47;;;20.90;65.00;;;;;;5012963;28;20038;-63
2022/06/10 07:39:29;;;;;;;5.15;1.73;;;20.80;65.90;;;;;;5009807;28;20562;-63
2022/06/10 07:41:57;;;;;;;7.75;2.35;;;20.90;64.30;;;;;;5016646;28;20116;-66
2022/06/10 07:44:25;;;;;;;10.07;4.88;;;21.00;64.60;;;;;;5015670;28;20036;-66
2022/06/10 07:46:53;;;;;;;4.70;1.85;;;21.00;64.40;;;;;;5017765;28;20026;-66
2022/06/10 07:49:20;;;;;;;7.22;2.38;;;21.00;64.70;;;;;;5005954;28;20021;-66
2022/06/10 07:51:46;;;;;;;6.60;2.85;;;21.00;63.90;;;;;;5007646;28;20088;-66
2022/06/10 07:54:12;;;;;;;7.93;3.63;;;21.10;65.20;;;;;;5012544;28;20041;-67
2022/06/10 07:56:39;;;;;;;7.00;2.13;;;21.20;63.40;;;;;;5012220;28;20036;-69
2022/06/10 08:04:29;;;;;;;5.70;1.50;;;21.30;62.10;;;;;;5028337;28;20044;-64
2022/06/10 08:06:55;;;;;;;7.32;2.08;;;21.40;61.80;;;;;;5035494;28;20020;-64
2022/06/10 08:09:21;;;;;;;10.40;1.88;;;21.50;61.70;;;;;;5030763;28;20032;-64
2022/06/10 08:11:50;;;;;;;4.60;1.63;;;21.50;60.70;;;;;;5038443;28;20059;-64
2022/06/10 08:14:16;;;;;;;9.80;2.47;;;21.60;62.30;;;;;;5037173;28;20053;-64
2022/06/10 08:16:42;;;;;;;9.23;2.35;;;21.70;61.20;;;;;;5033056;28;20037;-64
2022/06/10 08:19:08;;;;;;;10.77;4.22;;;21.80;61.10;;;;;;5035064;28;20040;-66
2022/06/10 08:24:20;;;;;;;12.35;4.85;;;22.30;59.70;;;;;;5038885;28;20484;-66
2022/06/10 08:26:47;;;;;;;7.22;2.17;;;22.50;59.60;;;;;;5033720;28;20052;-64
2022/06/10 08:29:13;;;;;;;7.97;2.78;;;22.60;58.40;;;;;;5038903;28;20032;-66
2022/06/10 08:31:39;;;;;;;7.28;1.75;;;22.60;58.20;;;;;;5037460;28;20029;-66
2022/06/10 08:34:05;;;;;;;11.88;1.83;;;22.60;58.40;;;;;;5031451;28;20052;-64
2022/06/10 08:36:33;;;;;;;7.47;2.15;;;22.70;58.60;;;;;;5031317;28;20037;-66
2022/06/10 08:39:00;;;;;;;6.07;1.52;;;23.00;57.40;;;;;;5033560;28;20032;-66
2022/06/10 08:41:45;;;;;;;8.00;1.88;;;23.20;56.20;;;;;;5036085;28;20040;-66
2022/06/10 08:44:37;;;;;;;8.57;1.77;;;23.40;54.90;;;;;;5035136;28;20060;-66
2022/06/10 08:47:34;;;;;;;6.82;1.55;;;23.40;55.30;;;;;;5033765;28;20033;-66
2022/06/10 08:50:06;;;;;;;;;;;23.60;55.10;;;;;;5031198;28;20381;-65
2022/06/10 08:52:53;;;;;;;5.80;2.33;;;24.30;53.10;;;;;;5036260;28;19913;-66
2022/06/10 08:55:53;;;;;;;5.35;1.75;;;24.50;52.40;;;;;;5032518;28;20493;-66
2022/06/10 08:58:34;;;;;;;6.00;2.40;;;24.30;52.10;;;;;;5036844;28;20480;-66
2022/06/10 09:01:05;;;;;;;6.93;1.70;;;24.00;52.30;;;;;;5037195;28;20709;-66
2022/06/10 09:03:52;;;;;;;4.90;1.70;;;24.00;52.60;;;;;;5034798;28;20499;-66
2022/06/10 09:06:31;;;;;;;4.72;1.60;;;23.90;52.30;;;;;;5034389;28;20103;-65
2022/06/10 09:09:01;;;;;;;4.68;1.35;;;23.60;51.20;;;;;;5036355;28;20035;-65
2022/06/10 09:11:37;;;;;;;3.55;1.35;;;23.40;51.40;;;;;;5031524;28;20091;-65
2022/06/10 09:14:22;;;;;;;4.93;1.27;;;23.40;52.60;;;;;;5037435;28;20032;-65
2022/06/10 09:17:02;;;;;;;5.05;1.10;;;23.60;51.00;;;;;;5032073;28;20043;-66
2022/06/10 09:19:51;;;;;;;4.22;1.42;;;23.80;50.40;;;;;;5034893;28;20561;-65
2022/06/10 09:22:26;;;;;;;3.75;1.20;;;23.80;50.80;;;;;;5032269;28;20830;-66
2022/06/10 09:25:17;;;;;;;5.55;1.10;;;23.70;50.10;;;;;;5035667;28;20480;-67
2022/06/10 09:27:50;;;;;;;6.50;1.48;;;23.70;48.70;;;;;;5048637;28;20927;-65
2022/06/10 09:30:21;;;;;;;2.38;0.82;;;23.70;49.30;;;;;;5035592;28;20706;-65
2022/06/10 09:33:10;;;;;;;5.80;1.33;;;23.80;50.50;;;;;;5030446;28;20034;-65
2022/06/10 09:36:00;;;;;;;6.53;1.92;;;24.00;51.00;;;;;;5031128;28;20033;-65
2022/06/10 09:38:47;;;;;;;6.35;2.42;;;24.40;47.90;;;;;;5032249;28;20492;-66
2022/06/10 09:41:31;;;;;;;5.45;1.80;;;24.50;47.40;;;;;;5030230;28;20488;-65
2022/06/10 09:44:35;;;;;;;10.32;3.08;;;24.20;48.00;;;;;;5032796;28;20472;-66
2022/06/10 09:47:18;;;;;;;6.05;2.60;;;24.10;48.10;;;;;;4955071;28;20046;-65
2022/06/10 09:49:56;;;;;;;5.35;1.48;;;24.00;47.40;;;;;;4970290;28;20453;-66
2022/06/10 09:52:40;;;;;;;6.28;1.33;;;24.00;47.80;;;;;;5018228;28;20041;-65
2022/06/10 09:55:40;;;;;;;3.75;1.50;;;23.90;47.90;;;;;;5037048;28;20148;-66
2022/06/10 09:58:44;;;;;;;3.80;1.30;;;23.90;47.50;;;;;;5030534;28;20082;-66
2022/06/10 10:01:25;;;;;;;4.30;1.05;;;23.90;48.30;;;;;;5033716;28;20030;-66
2022/06/10 10:04:27;;;;;;;5.55;1.42;;;23.90;48.10;;;;;;5034997;28;20030;-66
2022/06/10 10:07:17;;;;;;;5.75;1.45;;;24.00;48.20;;;;;;5035494;28;20025;-66
2022/06/10 10:09:52;;;;;;;6.88;3.35;;;24.00;47.80;;;;;;5031611;28;20049;-66
2022/06/10 10:12:34;;;;;;;10.32;3.50;;;24.10;47.40;;;;;;5034134;28;20090;-66
2022/06/10 10:15:11;;;;;;;3.78;1.65;;;24.30;46.60;;;;;;5035424;28;20029;-66
2022/06/10 10:17:40;;;;;;;12.57;4.72;;;24.30;45.50;;;;;;5032412;28;20041;-65
2022/06/10 10:20:28;;;;;;;5.95;2.28;;;24.10;47.20;;;;;;5034640;28;20523;-66
2022/06/10 10:23:22;;;;;;;5.63;1.98;;;24.30;47.30;;;;;;5026112;28;20033;-66
2022/06/10 10:25:48;;;;;;;5.75;2.58;;;24.70;46.60;;;;;;5025356;28;20679;-64
2022/06/10 10:28:19;;;;;;;4.00;1.15;;;24.90;46.40;;;;;;5033935;28;20036;-65
2022/06/10 10:30:55;;;;;;;5.40;1.23;;;24.90;46.20;;;;;;5031057;28;20129;-66
2022/06/10 10:33:21;;;;;;;5.40;1.73;;;24.90;45.60;;;;;;5034593;28;20029;-66
2022/06/10 10:35:50;;;;;;;5.28;1.80;;;25.00;45.40;;;;;;5034273;28;20035;-65
2022/06/10 10:38:32;;;;;;;4.40;1.40;;;25.00;45.40;;;;;;5035259;28;20845;-65
2022/06/10 10:40:58;;;;;;;6.13;1.60;;;24.90;43.90;;;;;;5034834;28;20041;-65
2022/06/10 10:43:35;;;;;;;5.38;1.67;;;24.80;44.70;;;;;;5034263;28;20029;-65
2022/06/10 10:46:04;;;;;;;3.33;1.27;;;24.80;46.60;;;;;;5025365;28;20033;-65
2022/06/10 10:48:37;;;;;;;6.63;1.23;;;24.90;46.30;;;;;;5035273;28;20032;-66
2022/06/10 10:51:12;;;;;;;3.35;1.30;;;25.50;45.00;;;;;;5033796;28;20048;-66
2022/06/10 10:53:56;;;;;;;5.05;1.17;;;26.40;44.00;;;;;;5028898;28;20033;-65
2022/06/10 10:56:31;;;;;;;5.00;1.25;;;26.60;42.40;;;;;;5030497;28;20508;-65
2022/06/10 10:58:57;;;;;;;7.73;1.23;;;26.20;41.50;;;;;;5034463;28;20025;-65
2022/06/10 11:01:43;;;;;;;6.40;1.35;;;26.00;42.00;;;;;;5029065;28;20291;-65
2022/06/10 11:04:36;;;;;;;4.82;1.02;;;25.90;42.40;;;;;;5030017;28;20069;-65
2022/06/10 11:07:04;;;;;;;3.17;1.30;;;25.60;43.40;;;;;;5036943;28;20584;-65
2022/06/10 11:09:31;;;;;;;2.58;0.90;;;25.40;44.50;;;;;;5030743;28;20511;-65
2022/06/10 11:12:01;;;;;;;4.60;0.90;;;25.30;44.00;;;;;;5034639;28;20036;-65
2022/06/10 11:14:33;;;;;;;4.25;1.10;;;25.30;43.90;;;;;;5040695;28;20055;-65
2022/06/10 11:17:14;;;;;;;8.18;1.42;;;25.30;42.90;;;;;;5036251;28;20044;-65
2022/06/10 11:19:42;;;;;;;4.10;0.95;;;25.20;43.20;;;;;;5036577;28;20668;-65
2022/06/10 11:22:12;;;;;;;3.80;1.00;;;25.20;43.20;;;;;;5035245;28;20404;-65
2022/06/10 11:24:48;;;;;;;3.58;1.35;;;25.20;43.20;;;;;;5031299;28;20118;-63
2022/06/10 11:27:33;;;;;;;4.22;0.90;;;25.30;43.70;;;;;;5036743;28;20037;-63
2022/06/10 11:30:05;;;;;;;5.75;1.38;;;25.30;45.40;;;;;;5035307;28;20685;-63
2022/06/10 11:32:49;;;;;;;5.68;1.08;;;25.50;43.90;;;;;;5031960;28;20064;-64
2022/06/10 11:35:39;;;;;;;3.88;1.30;;;25.50;44.00;;;;;;5035651;28;20041;-63
2022/06/10 11:38:24;;;;;;;4.65;0.93;;;25.50;44.00;;;;;;5035513;28;20722;-63
2022/06/10 11:40:54;;;;;;;4.47;0.98;;;25.40;43.90;;;;;;5036024;28;20044;-61
2022/06/10 11:43:27;;;;;;;2.42;0.95;;;25.20;44.00;;;;;;5037367;28;20087;-64
2022/06/10 11:46:12;;;;;;;4.07;0.93;;;25.20;44.50;;;;;;5033311;28;20801;-64
2022/06/10 11:48:50;;;;;;;4.53;1.23;;;25.30;42.90;;;;;;5034266;28;20034;-65
2022/06/10 11:51:26;;;;;;;3.13;0.85;;;25.40;42.40;;;;;;5036209;28;20097;-64
2022/06/10 11:53:58;;;;;;;4.30;1.00;;;25.50;42.30;;;;;;5034120;28;20040;-64
2022/06/10 12:00:00;;;;;;;3.13;1.20;;;25.60;42.50;;;;;;5037855;28;20033;-64
2022/06/10 12:02:47;;;;;;;3.75;1.00;;;25.50;41.90;;;;;;5031431;28;20123;-64
2022/06/10 12:05:26;;;;;;;4.20;0.82;;;25.50;41.90;;;;;;5037762;28;20445;-64
2022/06/10 12:08:05;;;;;;;3.83;1.08;;;25.50;41.20;;;;;;5036246;28;20037;-64
2022/06/10 12:10:40;;;;;;;4.40;1.00;;;25.50;39.60;;;;;;5035475;28;20039;-64
2022/06/10 12:13:11;;;;;;;4.20;0.88;;;25.60;41.40;;;;;;5032443;28;20037;-64
2022/06/10 12:15:44;;;;;;;2.78;0.82;;;25.60;41.60;;;;;;5032908;28;20049;-64
2022/06/10 12:18:11;;;;;;;6.47;1.23;;;25.70;42.50;;;;;;5035634;28;20110;-63
2022/06/10 12:20:48;;;;;;;5.57;0.98;;;25.80;41.50;;;;;;5036242;28;20028;-64
2022/06/10 12:23:22;;;;;;;6.85;2.53;;;25.90;41.70;;;;;;5031613;28;20187;-64
2022/06/10 12:26:02;;;;;;;7.00;2.70;;;25.90;40.30;;;;;;5035306;28;20399;-64
2022/06/10 12:28:40;;;;;;;9.13;3.83;;;25.90;39.70;;;;;;5033638;28;20157;-64
2022/06/10 12:31:23;;;;;;;7.10;3.08;;;25.80;40.90;;;;;;5030776;28;20035;-64
2022/06/10 12:34:06;;;;;;;7.10;1.98;;;25.70;41.00;;;;;;5032738;28;20031;-64
2022/06/10 12:36:50;;;;;;;3.63;1.33;;;25.70;41.20;;;;;;5033388;28;20028;-64
2022/06/10 12:39:27;;;;;;;6.25;2.10;;;25.80;41.50;;;;;;5036099;28;20532;-63
2022/06/10 12:42:17;;;;;;;4.93;2.00;;;26.00;41.00;;;;;;5035119;28;20032;-64
2022/06/10 12:44:54;;;;;;;2.83;1.33;;;26.00;40.80;;;;;;5035149;28;20056;-64
2022/06/10 12:47:28;;;;;;;2.72;1.60;;;26.20;40.60;;;;;;5032894;28;20568;-64
2022/06/10 12:50:00;;;;;;;3.03;1.27;;;26.20;40.10;;;;;;5034532;28;20453;-64
2022/06/10 12:52:44;;;;;;;2.53;1.08;;;26.20;40.50;;;;;;5032272;28;20032;-64
2022/06/10 12:55:31;;;;;;;6.10;2.50;;;26.30;40.00;;;;;;5033053;28;20113;-65
2022/06/10 12:57:57;;;;;;;5.80;2.90;;;26.30;39.90;;;;;;5038610;28;20210;-65
2022/06/10 13:00:34;;;;;;;5.32;1.58;;;26.30;39.70;;;;;;5032872;28;21081;-64
2022/06/10 13:03:12;;;;;;;5.03;2.42;;;26.20;40.20;;;;;;5033501;28;20029;-64
2022/06/10 13:05:37;;;;;;;4.78;1.42;;;26.20;40.00;;;;;;5034722;28;20061;-64
2022/06/10 13:08:38;;;;;;;4.45;1.35;;;26.20;39.10;;;;;;5032967;28;20061;-64
2022/06/10 13:11:07;;;;;;;3.28;1.25;;;26.30;39.20;;;;;;5037939;28;20699;-65
2022/06/10 13:13:35;;;;;;;2.80;1.08;;;26.30;39.60;;;;;;5036379;28;20785;-64
2022/06/10 13:16:35;;;;;;;4.68;1.30;;;26.40;39.60;;;;;;5035377;28;20029;-64
2022/06/10 13:19:01;;;;;;;7.05;1.35;;;26.50;39.40;;;;;;5036730;28;20593;-64
2022/06/10 13:21:30;;;;;;;2.08;1.10;;;26.50;39.20;;;;;;5033471;28;20690;-64
2022/06/10 13:23:59;;;;;;;2.63;0.85;;;26.60;38.70;;;;;;5035673;28;20017;-64
2022/06/10 13:26:26;;;;;;;4.18;1.85;;;26.50;38.80;;;;;;5032997;28;20091;-64
2022/06/10 13:29:02;;;;;;;4.45;1.20;;;26.50;40.30;;;;;;5031930;28;20025;-64
2022/06/10 13:31:28;;;;;;;2.42;1.30;;;26.50;40.20;;;;;;5033594;28;20476;-64
2022/06/10 13:33:59;;;;;;;3.15;1.67;;;26.60;38.30;;;;;;5030377;28;20086;-64
2022/06/10 13:36:30;;;;;;;4.30;2.22;;;26.60;38.10;;;;;;5032879;28;20041;-64
2022/06/10 13:38:57;;;;;;;5.85;1.27;;;26.60;38.90;;;;;;5031433;28;20456;-64